Decoded Metar for KHUL (HOULTON in ME, USA) (IATA:HUL) | Meteo·Mobile Aviation Weather
aviador You're here:

KHUL Decoded Metar

HOULTON in ME, USA
Report Time2018-10-23 22:01:00
UTC Time2018-10-23 22:37:45
Flight Rules ifr IFR
WindVRB at 03 kt
Visibility9999 m
Phenomena:N/A
Clouds:Broken 006 Hf
Overcast 028 Hf
Expected CloudBase > 400 ft AGL from Temp-Dew spread
Ceiling600 ft
Temp00°C (ISA -14)
Dew Point-1°C (93% RH)
AAT-3.2°C
QNH1022 hPa
Density Alt-1,447 ft
Elevation492 ft
Report Wrong Elevation
Raw Report
KHUL 232201Z AUTO VRB03KT 7SM BKN006 OVC028 00/M01 A3017 RMK AO2
T00001006=

Extra information for KHUL:More info

Metar Taf Metar & Taf Last 4 Metars F.Rules Stats Wind Profile Meteogram Temp Stats Airport Information Weather charts Add Link Nearby VenuesMetar ALERT Operation Metar Decoded Social comments

AIRNAV info for KHUL